Time;durP1;ratioP1;P1;durP2;ratioP2;P2;SDS_P1;SDS_P2;PMS_P1;PMS_P2;Temp;Humidity;BMP_temperature;BMP_pressure;BME280_temperature;BME280_humidity;BME280_pressure;Samples;Min_cycle;Max_cycle;Signal;HPM_P1;HPM_P2
2024/03/17 00:04:46;;;;;;;17.45;7.57;;;;;;;12.65;100.00;101444.03;10477286;28;20502;-75
2024/03/17 00:10:10;;;;;;;9.48;6.25;;;;;;;12.55;100.00;101442.06;10448484;28;20056;-74
2024/03/17 00:15:33;;;;;;;7.32;5.88;;;;;;;12.53;100.00;101438.53;10447897;28;20571;-75
2024/03/17 00:20:57;;;;;;;9.82;6.18;;;;;;;12.46;100.00;101441.03;10462728;28;20115;-74
2024/03/17 00:26:20;;;;;;;9.18;6.70;;;;;;;12.48;100.00;101437.53;10435039;28;20045;-75
2024/03/17 00:31:43;;;;;;;9.43;6.97;;;;;;;12.42;100.00;101424.16;10448120;28;20068;-74
2024/03/17 00:37:07;;;;;;;7.70;6.28;;;;;;;12.42;100.00;101424.16;10460584;28;20041;-75
2024/03/17 00:42:30;;;;;;;14.40;9.40;;;;;;;12.42;100.00;101420.63;10448203;28;20044;-75
2024/03/17 00:47:53;;;;;;;7.38;6.65;;;;;;;12.47;100.00;101411.03;10447690;28;20052;-75
2024/03/17 00:53:17;;;;;;;12.57;10.32;;;;;;;12.42;100.00;101404.75;10449880;28;20052;-75
2024/03/17 00:58:40;;;;;;;11.90;9.98;;;;;;;12.40;100.00;101407.38;10442654;28;20045;-74
2024/03/17 01:04:02;;;;;;;10.32;8.00;;;;;;;12.39;100.00;101408.25;10447034;28;20045;-75
2024/03/17 01:09:26;;;;;;;21.20;18.48;;;;;;;12.36;100.00;101390.53;10435679;28;20053;-74
2024/03/17 01:14:49;;;;;;;6.50;5.90;;;;;;;12.20;100.00;101382.28;10445786;28;20052;-75
2024/03/17 01:20:11;;;;;;;6.72;6.13;;;;;;;12.04;100.00;101374.91;10447686;28;20055;-75
2024/03/17 01:25:37;;;;;;;6.75;6.05;;;;;;;11.88;100.00;101379.88;10460840;28;20481;-75
2024/03/17 01:30:59;;;;;;;8.10;6.65;;;;;;;11.90;100.00;101375.53;10460627;28;20534;-75
2024/03/17 01:36:22;;;;;;;11.10;7.68;;;;;;;11.85;100.00;101379.84;10459306;28;20122;-75
2024/03/17 01:41:45;;;;;;;20.98;18.83;;;;;;;11.84;100.00;101374.50;10447152;28;20103;-74
2024/03/17 01:47:09;;;;;;;12.02;10.75;;;;;;;11.89;100.00;101371.09;10447101;28;20052;-74
2024/03/17 01:52:31;;;;;;;11.82;8.55;;;;;;;11.95;100.00;101357.97;10447166;28;20049;-75
2024/03/17 01:57:56;;;;;;;11.85;10.50;;;;;;;12.08;100.00;101347.66;10445629;28;20048;-75
2024/03/17 02:03:18;;;;;;;10.60;9.60;;;;;;;12.08;100.00;101353.81;10446526;28;20431;-74
2024/03/17 02:08:51;;;;;;;18.80;14.88;;;;;;;11.82;100.00;101345.38;10445962;28;20060;-74
2024/03/17 02:14:17;;;;;;;14.02;9.93;;;;;;;11.78;100.00;101347.94;10450478;28;20095;-74
2024/03/17 02:19:39;;;;;;;12.77;10.30;;;;;;;11.71;100.00;101351.28;10452866;28;20045;-75
2024/03/17 02:25:04;;;;;;;6.85;5.90;;;;;;;11.66;100.00;101351.19;10453097;28;20045;-75
2024/03/17 02:30:26;;;;;;;6.85;5.53;;;;;;;11.84;100.00;101340.13;10452812;28;20075;-75
2024/03/17 02:35:48;;;;;;;6.55;5.90;;;;;;;11.70;100.00;101342.47;10453725;28;20481;-75
2024/03/17 02:41:12;;;;;;;8.13;6.07;;;;;;;11.65;100.00;101352.06;10452346;28;20135;-75
2024/03/17 02:46:35;;;;;;;6.30;5.45;;;;;;;11.62;100.00;101351.97;10466788;28;20515;-75
2024/03/17 02:51:59;;;;;;;6.32;5.72;;;;;;;11.64;100.00;101350.28;10467100;28;20045;-74
2024/03/17 02:57:24;;;;;;;41.00;37.47;;;;;;;11.63;100.00;101352.88;10450936;28;20048;-74
2024/03/17 03:02:47;;;;;;;29.10;26.50;;;;;;;11.61;100.00;101355.50;10451355;28;20408;-75
2024/03/17 03:08:09;;;;;;;19.27;17.48;;;;;;;11.72;100.00;101350.44;10450539;28;20052;-74
2024/03/17 03:13:33;;;;;;;14.52;13.18;;;;;;;11.85;100.00;101342.81;10452234;28;20707;-75
2024/03/17 03:18:56;;;;;;;29.80;26.75;;;;;;;11.92;100.00;101331.47;10450619;28;20603;-75
2024/03/17 03:24:18;;;;;;;9.80;8.80;;;;;;;11.87;100.00;101334.91;10451414;28;20064;-75
2024/03/17 03:29:43;;;;;;;8.52;7.72;;;;;;;12.05;100.00;101337.91;10436547;28;20048;-75
2024/03/17 03:35:06;;;;;;;7.57;5.43;;;;;;;12.31;100.00;101331.31;10451288;28;20219;-75
2024/03/17 03:40:28;;;;;;;6.88;5.45;;;;;;;12.24;100.00;101334.72;10451039;28;20443;-74
2024/03/17 03:45:52;;;;;;;9.18;6.63;;;;;;;12.26;100.00;101337.41;10437827;28;20045;-74
2024/03/17 03:51:15;;;;;;;7.75;5.80;;;;;;;12.35;100.00;101330.50;10449411;28;20041;-75
2024/03/17 03:56:37;;;;;;;8.25;5.68;;;;;;;12.35;100.00;101337.53;10463945;28;20567;-74
2024/03/17 04:02:02;;;;;;;10.35;8.07;;;;;;;12.10;100.00;101348.56;10433213;28;20063;-74
2024/03/17 04:07:26;;;;;;;10.27;8.15;;;;;;;11.89;100.00;101338.44;10450038;28;20064;-74
2024/03/17 04:12:48;;;;;;;14.05;8.02;;;;;;;12.00;100.00;101349.25;10456454;28;20059;-73
2024/03/17 04:18:12;;;;;;;14.25;8.00;;;;;;;12.23;100.00;101347.91;10448979;28;20055;-74
2024/03/17 04:23:35;;;;;;;15.88;9.40;;;;;;;12.49;100.00;101351.94;10448815;28;20053;-74
2024/03/17 04:28:57;;;;;;;10.68;6.72;;;;;;;12.57;100.00;101341.47;10435012;28;20051;-74
2024/03/17 04:34:22;;;;;;;11.73;10.05;;;;;;;12.59;100.00;101347.69;10447571;28;20055;-74
2024/03/17 04:39:46;;;;;;;7.53;6.63;;;;;;;12.65;100.00;101353.97;10457132;28;20481;-74
2024/03/17 04:45:10;;;;;;;9.25;7.10;;;;;;;12.86;100.00;101356.09;10443377;28;20053;-75
2024/03/17 04:50:34;;;;;;;8.85;6.43;;;;;;;13.08;100.00;101344.94;10447589;28;20152;-75
2024/03/17 04:56:04;;;;;;;6.85;5.57;;;;;;;13.62;100.00;101351.88;10448432;28;20080;-75
2024/03/17 05:01:27;;;;;;;6.75;5.57;;;;;;;13.48;100.00;101350.81;10433356;28;20048;-75
2024/03/17 05:06:52;;;;;;;22.58;20.55;;;;;;;13.33;100.00;101356.78;10433361;28;20052;-74
2024/03/17 05:12:14;;;;;;;13.18;11.40;;;;;;;13.49;100.00;101360.56;10462842;28;20102;-74
2024/03/17 05:17:37;;;;;;;9.98;6.70;;;;;;;13.93;100.00;101356.69;10464138;28;20071;-75
2024/03/17 05:23:01;;;;;;;6.22;5.28;;;;;;;14.35;100.00;101356.25;10446597;28;20049;-74
2024/03/17 05:28:23;;;;;;;6.43;4.97;;;;;;;14.72;100.00;101349.53;10446176;28;20049;-74
2024/03/17 05:33:46;;;;;;;6.57;5.43;;;;;;;15.05;100.00;101348.88;10433318;28;20044;-75
2024/03/17 05:39:10;;;;;;;8.07;4.72;;;;;;;15.25;100.00;101345.47;10446918;28;20052;-74
2024/03/17 05:44:49;;;;;;;8.07;5.20;;;;;;;15.53;100.00;101358.06;10446132;28;20093;-74
2024/03/17 05:50:12;;;;;;;16.92;13.77;;;;;;;16.20;100.00;101351.22;10452551;28;20155;-75
2024/03/17 05:55:39;;;;;;;10.88;9.77;;;;;;;15.92;100.00;101350.25;10454722;28;20053;-74
2024/03/17 06:01:03;;;;;;;14.32;12.88;;;;;;;15.76;100.00;101364.38;10453619;28;20143;-74
2024/03/17 06:06:25;;;;;;;21.60;18.73;;;;;;;15.97;100.00;101362.69;10442321;28;20041;-74
2024/03/17 06:11:50;;;;;;;8.10;7.43;;;;;;;16.20;100.00;101363.66;10453928;28;20098;-74
2024/03/17 06:17:12;;;;;;;8.30;7.43;;;;;;;16.35;100.00;101361.88;10439347;28;20052;-75
2024/03/17 06:22:35;;;;;;;8.60;6.30;;;;;;;16.46;100.00;101364.59;10439786;28;20037;-75
2024/03/17 06:28:01;;;;;;;5.00;4.50;;;;;;;19.09;100.00;101358.22;10453746;28;20554;-75
2024/03/17 06:33:24;;;;;;;4.82;4.18;;;;;;;20.78;100.00;101358.69;10480193;28;20131;-75
2024/03/17 06:38:47;;;;;;;15.02;9.85;;;;;;;21.36;100.00;101361.25;10451618;28;20041;-75
2024/03/17 06:44:10;;;;;;;12.75;9.05;;;;;;;24.13;95.22;101361.53;10438211;28;20088;-75
2024/03/17 06:49:33;;;;;;;24.90;20.13;;;;;;;24.33;93.69;101358.25;10452421;28;20045;-75
2024/03/17 06:54:55;;;;;;;6.72;5.57;;;;;;;25.55;77.57;101363.06;10446390;28;20049;-75
2024/03/17 07:00:24;;;;;;;6.85;6.15;;;;;;;24.63;86.18;101356.38;10450698;28;20584;-76
2024/03/17 07:05:53;;;;;;;11.43;10.23;;;;;;;24.53;82.44;101365.72;10451300;28;20049;-75
2024/03/17 07:11:17;;;;;;;7.82;7.10;;;;;;;26.14;63.21;101363.53;10450761;28;20037;-75
2024/03/17 07:16:41;;;;;;;6.07;5.43;;;;;;;23.93;85.58;101365.78;10463484;28;20095;-75
2024/03/17 07:22:04;;;;;;;6.15;5.18;;;;;;;26.33;63.83;101357.44;10451322;28;20052;-75
2024/03/17 07:27:27;;;;;;;8.75;7.45;;;;;;;24.50;73.29;101360.41;10427788;28;20078;-76
2024/03/17 07:32:51;;;;;;;7.88;6.70;;;;;;;22.11;94.43;101363.31;10440411;28;20044;-75
2024/03/17 07:38:13;;;;;;;7.22;5.20;;;;;;;24.89;67.37;101358.19;10464555;28;20037;-74
2024/03/17 07:43:38;;;;;;;5.70;5.10;;;;;;;26.15;53.91;101345.47;10441836;28;20053;-75
2024/03/17 07:49:02;;;;;;;5.90;5.30;;;;;;;24.72;57.97;101360.59;10431444;28;20648;-75
2024/03/17 07:54:24;;;;;;;7.82;6.22;;;;;;;22.49;80.05;101340.88;10474540;28;20041;-75
2024/03/17 07:59:51;;;;;;;8.00;5.07;;;;;;;23.13;78.03;101356.31;10443817;28;20050;-75
2024/03/17 08:05:15;;;;;;;10.90;9.68;;;;;;;22.72;80.27;101359.16;10440514;28;20045;-74
2024/03/17 08:10:39;;;;;;;5.28;4.38;;;;;;;22.57;83.58;101358.63;10475439;28;20045;-75
2024/03/17 08:16:05;;;;;;;5.60;5.10;;;;;;;22.47;81.59;101350.78;10468866;28;20052;-75
2024/03/17 08:21:29;;;;;;;4.63;4.22;;;;;;;23.36;72.18;101344.94;10425159;28;20049;-75
2024/03/17 08:26:52;;;;;;;7.13;5.20;;;;;;;25.39;54.69;101361.88;10447777;28;20055;-75
2024/03/17 08:32:17;;;;;;;8.38;7.28;;;;;;;26.59;51.45;101346.41;10447653;28;20041;-76
2024/03/17 08:37:40;;;;;;;6.45;5.07;;;;;;;27.03;48.16;101332.88;10448565;28;20457;-76
2024/03/17 08:43:03;;;;;;;7.05;6.38;;;;;;;26.75;49.13;101336.72;10447987;28;20412;-77
2024/03/17 08:48:26;;;;;;;5.07;4.57;;;;;;;24.59;61.54;101344.81;10447679;28;20147;-76
2024/03/17 08:53:50;;;;;;;4.20;3.80;;;;;;;25.12;56.34;101328.59;10434107;28;20049;-77
2024/03/17 08:59:13;;;;;;;5.63;4.20;;;;;;;25.65;56.06;101334.81;10447436;28;20056;-76
2024/03/17 09:04:35;;;;;;;7.90;4.78;;;;;;;28.64;44.05;101322.56;10447991;28;20043;-77
2024/03/17 09:09:59;;;;;;;5.00;4.53;;;;;;;28.88;43.01;101332.25;10447071;28;20402;-77
2024/03/17 09:15:22;;;;;;;3.90;3.42;;;;;;;31.34;38.49;101340.13;10447394;28;20148;-77
2024/03/17 09:20:45;;;;;;;5.18;3.30;;;;;;;30.44;38.84;101330.97;10444405;28;20053;-77
2024/03/17 09:26:13;;;;;;;5.20;3.20;;;;;;;31.51;37.23;101331.75;10473896;28;20053;-77
2024/03/17 09:31:36;;;;;;;4.82;3.53;;;;;;;28.25;42.52;101331.75;10446571;28;20135;-76
2024/03/17 09:36:58;;;;;;;3.92;3.53;;;;;;;30.80;37.40;101319.75;10461260;28;20049;-77
2024/03/17 09:42:23;;;;;;;8.95;4.22;;;;;;;29.11;40.43;101334.63;10418246;28;20049;-76
2024/03/17 09:47:46;;;;;;;5.03;4.10;;;;;;;31.16;36.22;101333.94;10459783;28;20049;-76
2024/03/17 09:53:17;;;;;;;4.97;3.75;;;;;;;31.08;36.68;101329.91;10436735;28;20107;-77
2024/03/17 09:58:41;;;;;;;4.00;3.63;;;;;;;31.45;35.50;101337.59;10423694;28;20383;-76
2024/03/17 10:04:04;;;;;;;3.60;3.17;;;;;;;29.12;38.33;101341.84;10460503;28;20493;-75
2024/03/17 10:09:32;;;;;;;7.10;5.15;;;;;;;31.40;34.49;101333.38;10445166;28;20163;-76
2024/03/17 10:15:04;;;;;;;;;;;;;;;29.32;38.02;101336.25;10438662;28;20045;-75
2024/03/17 10:20:28;;;;;;;5.03;3.97;;;;;;;30.39;34.22;101320.31;10417469;28;21019;-75
2024/03/17 10:25:51;;;;;;;6.05;5.00;;;;;;;26.89;39.01;101318.06;10437755;28;20432;-74
2024/03/17 10:31:15;;;;;;;6.30;4.07;;;;;;;27.53;39.53;101309.81;10447736;28;20887;-75
2024/03/17 10:36:37;;;;;;;5.78;4.00;;;;;;;27.35;39.90;101305.19;10437026;28;20048;-75
2024/03/17 10:42:02;;;;;;;3.90;3.40;;;;;;;28.49;37.19;101302.47;10444410;28;20038;-75
2024/03/17 10:47:27;;;;;;;4.45;3.72;;;;;;;27.82;38.68;101294.00;10447619;28;20493;-76
2024/03/17 10:52:51;;;;;;;4.22;3.63;;;;;;;27.34;39.00;101290.75;10459683;28;20183;-75
2024/03/17 10:58:24;;;;;;;4.18;3.70;;;;;;;25.72;40.29;101289.47;10444578;28;20056;-74
2024/03/17 11:03:50;;;;;;;6.18;4.50;;;;;;;27.05;39.89;101287.56;10417484;28;20053;-75
2024/03/17 11:09:17;;;;;;;7.13;4.40;;;;;;;28.04;37.50;101284.75;10438363;28;20053;-75
2024/03/17 11:14:39;;;;;;;7.75;7.00;;;;;;;27.51;38.64;101281.81;10450068;28;20660;-75
2024/03/17 11:20:18;;;;;;;9.98;8.65;;;;;;;26.61;39.90;101284.94;10450881;28;20091;-75
2024/03/17 11:25:41;;;;;;;16.58;14.43;;;;;;;25.06;44.20;101273.91;10451500;28;20103;-75
2024/03/17 11:31:08;;;;;;;14.65;11.95;;;;;;;25.29;44.86;101265.81;10451384;28;20056;-75
2024/03/17 11:36:48;;;;;;;6.10;5.38;;;;;;;24.97;45.94;101267.88;10451878;28;20049;-75
2024/03/17 11:42:14;;;;;;;15.75;13.30;;;;;;;24.80;46.42;101258.59;10465855;28;20045;-75
2024/03/17 11:47:42;;;;;;;20.95;16.88;;;;;;;23.80;49.87;101246.59;10450671;28;20068;-75
2024/03/17 11:53:12;;;;;;;7.95;5.70;;;;;;;23.63;52.79;101246.25;10451422;28;20073;-75
2024/03/17 11:58:36;;;;;;;7.53;6.60;;;;;;;23.89;50.60;101248.13;10450918;28;20053;-76
2024/03/17 12:04:03;;;;;;;5.43;4.30;;;;;;;23.20;52.46;101251.97;10450785;28;20614;-75
2024/03/17 12:09:29;;;;;;;4.63;4.23;;;;;;;22.64;55.64;101247.16;10408703;28;20053;-75
2024/03/17 12:14:52;;;;;;;12.15;9.32;;;;;;;22.27;59.47;101235.59;10424909;28;20045;-76
2024/03/17 12:20:19;;;;;;;4.75;4.30;;;;;;;22.08;61.81;101227.09;10418500;28;20454;-77
2024/03/17 12:25:48;;;;;;;5.40;4.40;;;;;;;21.56;64.35;101229.19;10466283;28;20041;-77
2024/03/17 12:31:10;;;;;;;6.18;4.18;;;;;;;21.80;66.31;101223.25;10466457;28;20419;-77
2024/03/17 12:36:33;;;;;;;7.20;5.95;;;;;;;22.60;63.27;101221.25;10475611;28;20048;-76
2024/03/17 12:42:06;;;;;;;4.78;4.20;;;;;;;23.05;61.66;101229.91;10434739;28;20041;-76
2024/03/17 12:47:30;;;;;;;12.70;10.63;;;;;;;22.98;62.06;101205.88;10460076;28;20037;-75
2024/03/17 12:52:56;;;;;;;10.57;8.93;;;;;;;22.61;64.78;101208.69;10447184;28;20055;-75
2024/03/17 13:04:08;;;;;;;4.57;3.67;;;;;;;22.41;68.77;101201.16;10454762;28;20370;-77
2024/03/17 13:09:31;;;;;;;7.32;6.22;;;;;;;21.90;71.98;101197.03;10456763;28;20060;-76
2024/03/17 13:14:54;;;;;;;5.70;4.90;;;;;;;21.69;75.97;101191.25;10447375;28;20060;-76
2024/03/17 13:20:18;;;;;;;6.30;5.45;;;;;;;21.74;77.17;101202.78;10461865;28;20045;-77
2024/03/17 13:25:43;;;;;;;12.88;7.63;;;;;;;21.61;78.12;101201.28;10445977;28;20401;-77
2024/03/17 13:31:13;;;;;;;7.63;6.25;;;;;;;21.29;83.37;101202.00;10451918;28;20049;-77
2024/03/17 13:36:36;;;;;;;6.45;5.78;;;;;;;21.32;81.57;101193.88;10433763;28;20046;-78
2024/03/17 13:42:02;;;;;;;6.15;5.18;;;;;;;21.05;83.22;101198.00;10391795;28;20042;-79
2024/03/17 13:47:26;;;;;;;6.07;4.97;;;;;;;21.00;85.72;101190.97;10454755;28;20041;-79
2024/03/17 13:52:49;;;;;;;6.82;5.30;;;;;;;20.98;84.89;101187.41;10445809;28;20060;-79
2024/03/17 13:58:12;;;;;;;6.53;5.93;;;;;;;20.49;85.96;101182.09;10447370;28;20085;-78
2024/03/17 14:03:36;;;;;;;6.38;5.20;;;;;;;20.17;89.04;101185.31;10475611;28;20513;-79
2024/03/17 14:08:58;;;;;;;5.95;4.72;;;;;;;19.92;91.13;101183.97;10450842;28;20110;-78
2024/03/17 14:14:21;;;;;;;24.17;12.57;;;;;;;20.00;89.43;101187.41;10428234;28;20052;-79
2024/03/17 14:19:45;;;;;;;7.90;7.07;;;;;;;19.88;87.83;101175.97;10483388;28;20575;-78
2024/03/17 14:25:09;;;;;;;6.18;5.57;;;;;;;19.78;89.40;101170.78;10455626;28;20056;-79
2024/03/17 14:30:32;;;;;;;5.63;5.13;;;;;;;19.66;90.86;101177.22;10469175;28;20505;-78
2024/03/17 14:35:59;;;;;;;7.32;5.10;;;;;;;19.11;95.74;101185.97;10470088;28;20063;-79
2024/03/17 14:41:21;;;;;;;20.05;10.45;;;;;;;18.62;99.84;101184.78;10455705;28;20052;-80
2024/03/17 14:46:51;;;;;;;26.83;13.73;;;;;;;18.47;100.00;101179.53;10455560;28;20041;-78
2024/03/17 14:52:15;;;;;;;6.30;5.63;;;;;;;18.33;100.00;101177.91;10455114;28;20140;-79
2024/03/17 14:57:38;;;;;;;8.05;6.32;;;;;;;18.20;100.00;101180.69;10453323;28;20049;-78
2024/03/17 15:03:00;;;;;;;6.18;5.38;;;;;;;17.96;100.00;101173.78;10452601;28;20454;-77
2024/03/17 15:08:24;;;;;;;6.53;5.15;;;;;;;17.80;100.00;101185.47;10453360;28;20543;-77
2024/03/17 15:13:47;;;;;;;6.53;5.90;;;;;;;17.66;100.00;101176.66;10481444;28;20049;-78
2024/03/17 15:19:10;;;;;;;6.78;5.35;;;;;;;17.52;100.00;101166.91;10449540;28;20504;-78
2024/03/17 15:24:34;;;;;;;6.32;5.72;;;;;;;17.38;100.00;101168.81;10466921;28;20095;-79
2024/03/17 15:29:56;;;;;;;6.60;5.85;;;;;;;17.19;100.00;101180.47;10453692;28;20056;-78
2024/03/17 15:35:20;;;;;;;10.48;8.40;;;;;;;17.08;100.00;101176.94;10451345;28;20052;-79
2024/03/17 15:40:44;;;;;;;9.00;8.02;;;;;;;16.99;100.00;101177.91;10467264;28;20045;-77
2024/03/17 15:46:08;;;;;;;8.77;5.75;;;;;;;16.88;100.00;101177.03;10452547;28;20048;-78
2024/03/17 15:51:32;;;;;;;7.05;6.35;;;;;;;16.64;100.00;101180.69;10438234;28;20057;-78
2024/03/17 15:56:56;;;;;;;9.15;8.15;;;;;;;16.43;100.00;101185.13;10437959;28;20167;-78
2024/03/17 16:02:18;;;;;;;15.77;9.85;;;;;;;16.21;100.00;101182.47;10451748;28;20098;-78
2024/03/17 16:07:41;;;;;;;15.52;12.88;;;;;;;16.15;100.00;101176.25;10452006;28;20049;-77
2024/03/17 16:13:05;;;;;;;17.08;14.73;;;;;;;15.99;100.00;101177.16;10451547;28;20072;-79
2024/03/17 16:18:28;;;;;;;10.48;9.45;;;;;;;15.81;100.00;101178.94;10439246;28;20053;-78
2024/03/17 16:23:54;;;;;;;12.50;11.20;;;;;;;15.71;100.00;101189.56;10440316;28;20060;-78
2024/03/17 16:29:18;;;;;;;47.40;39.17;;;;;;;15.52;100.00;101191.28;10464182;28;20057;-77
2024/03/17 16:34:41;;;;;;;15.40;13.85;;;;;;;15.37;100.00;101188.56;10427129;28;20044;-77
2024/03/17 16:40:05;;;;;;;12.13;10.07;;;;;;;15.20;100.00;101196.50;10449955;28;20103;-78
2024/03/17 16:45:29;;;;;;;12.40;11.10;;;;;;;15.01;100.00;101200.84;10409325;28;20061;-77
2024/03/17 16:50:52;;;;;;;20.05;17.45;;;;;;;14.87;100.00;101197.25;10429191;28;20417;-77
2024/03/17 16:56:15;;;;;;;19.02;14.95;;;;;;;14.81;100.00;101202.53;10447661;28;20041;-78
2024/03/17 17:01:41;;;;;;;25.52;20.20;;;;;;;14.74;100.00;101201.59;10449207;28;20060;-78
2024/03/17 17:07:03;;;;;;;24.33;19.90;;;;;;;14.72;100.00;101207.78;10425492;28;20092;-77
2024/03/17 17:12:27;;;;;;;18.67;14.40;;;;;;;14.63;100.00;101199.78;10409453;28;20466;-78
2024/03/17 17:17:54;;;;;;;15.35;13.70;;;;;;;14.55;100.00;101204.13;10433743;28;20113;-77
2024/03/17 17:23:18;;;;;;;19.63;17.73;;;;;;;14.68;100.00;101198.03;10442960;28;20080;-77
2024/03/17 17:28:41;;;;;;;17.60;14.65;;;;;;;14.70;100.00;101194.47;10447227;28;20485;-77
2024/03/17 17:34:05;;;;;;;19.60;15.95;;;;;;;14.74;100.00;101201.59;10446172;28;20051;-78
2024/03/17 17:39:28;;;;;;;14.77;11.40;;;;;;;14.71;100.00;101204.22;10475529;28;20049;-77
2024/03/17 17:44:52;;;;;;;14.63;12.90;;;;;;;14.66;100.00;101215.72;10425831;28;20071;-78
2024/03/17 17:50:16;;;;;;;13.73;11.85;;;;;;;14.77;100.00;101221.13;10449186;28;20053;-78
2024/03/17 17:55:39;;;;;;;11.15;9.95;;;;;;;14.93;100.00;101218.53;10452139;28;20436;-78
2024/03/17 18:01:02;;;;;;;14.80;12.88;;;;;;;14.86;100.00;101222.03;10453690;28;20401;-77
2024/03/17 18:06:26;;;;;;;18.17;13.88;;;;;;;14.78;100.00;101223.75;10448214;28;20098;-78
2024/03/17 18:11:48;;;;;;;24.35;16.10;;;;;;;14.96;100.00;101220.34;10435301;28;20286;-79
2024/03/17 18:17:16;;;;;;;11.38;10.20;;;;;;;14.85;100.00;101216.72;10439956;28;20056;-77
2024/03/17 18:22:40;;;;;;;16.65;12.13;;;;;;;15.01;100.00;101215.91;10452031;28;20037;-76
2024/03/17 18:28:03;;;;;;;15.55;12.07;;;;;;;14.77;100.00;101224.63;10452702;28;20049;-78
2024/03/17 18:33:25;;;;;;;22.00;14.90;;;;;;;14.69;100.00;101221.06;10427198;28;20053;-78
2024/03/17 18:38:52;;;;;;;14.32;11.88;;;;;;;14.57;100.00;101219.19;10437352;28;20582;-80
2024/03/17 18:44:15;;;;;;;21.27;16.80;;;;;;;14.47;100.00;101222.69;10441327;28;20045;-77
2024/03/17 18:49:37;;;;;;;20.00;15.68;;;;;;;14.51;100.00;101220.91;10419329;28;20041;-80
2024/03/17 18:55:02;;;;;;;10.73;9.63;;;;;;;14.58;100.00;101220.09;10438616;28;20409;-75
2024/03/17 19:00:27;;;;;;;15.40;12.68;;;;;;;14.61;100.00;101217.47;10430999;28;20119;-76
2024/03/17 19:05:54;;;;;;;15.95;12.55;;;;;;;14.53;100.00;101213.84;10452747;28;20069;-79
2024/03/17 19:11:22;;;;;;;12.37;11.10;;;;;;;14.42;100.00;101213.81;10448892;28;20138;-80
2024/03/17 19:16:45;;;;;;;12.00;10.68;;;;;;;14.60;100.00;101207.72;10437904;28;20825;-76
2024/03/17 19:22:07;;;;;;;9.65;8.00;;;;;;;14.67;100.00;101209.53;10436235;28;20052;-77
2024/03/17 19:27:31;;;;;;;9.68;7.38;;;;;;;14.73;100.00;101206.91;10466027;28;20052;-77
2024/03/17 19:32:54;;;;;;;10.52;9.43;;;;;;;15.14;100.00;101215.97;10447658;28;20484;-77
2024/03/17 19:38:17;;;;;;;11.35;10.25;;;;;;;15.34;100.00;101209.84;10433043;28;20037;-75
2024/03/17 19:43:43;;;;;;;16.02;12.05;;;;;;;15.05;100.00;101234.53;10451047;28;20057;-78
2024/03/17 19:49:07;;;;;;;18.95;11.70;;;;;;;14.40;100.00;101204.03;10450470;28;20049;-76
2024/03/17 19:54:30;;;;;;;17.25;15.40;;;;;;;14.47;100.00;101217.38;10440747;28;20156;-77
2024/03/17 19:59:54;;;;;;;17.73;13.38;;;;;;;14.10;100.00;101217.94;10449368;28;20319;-75
2024/03/17 20:05:17;;;;;;;21.73;16.80;;;;;;;14.05;100.00;101206.38;10448709;28;20041;-75
2024/03/17 20:10:43;;;;;;;25.02;22.17;;;;;;;14.15;100.00;101203.81;10444059;28;20136;-77
2024/03/17 20:16:18;;;;;;;45.10;35.72;;;;;;;14.40;100.00;101206.69;10449300;28;20134;-75
2024/03/17 20:21:41;;;;;;;35.65;32.08;;;;;;;14.54;100.00;101220.97;10445241;28;20049;-78
2024/03/17 20:27:04;;;;;;;22.10;16.52;;;;;;;14.22;100.00;101233.97;10440163;28;20045;-76
2024/03/17 20:32:29;;;;;;;26.38;20.45;;;;;;;13.98;100.00;101234.63;10418638;28;20055;-76
2024/03/17 20:37:52;;;;;;;27.58;17.08;;;;;;;13.98;100.00;101229.31;10448634;28;20056;-75
2024/03/17 20:43:15;;;;;;;28.85;18.05;;;;;;;13.98;100.00;101222.25;10419277;28;20052;-76
2024/03/17 20:48:39;;;;;;;55.72;49.97;;;;;;;14.06;100.00;101224.97;10448363;28;20512;-77
2024/03/17 20:54:03;;;;;;;20.63;16.67;;;;;;;14.05;100.00;101228.50;10448439;28;20045;-77
2024/03/17 20:59:26;;;;;;;15.95;12.45;;;;;;;14.06;100.00;101234.69;10443704;28;20430;-77
2024/03/17 21:04:51;;;;;;;20.33;14.50;;;;;;;14.01;100.00;101239.97;10447531;28;20076;-77
2024/03/17 21:10:14;;;;;;;23.63;15.93;;;;;;;13.98;100.00;101235.50;10437954;28;20053;-78
2024/03/17 21:15:37;;;;;;;21.30;12.35;;;;;;;13.72;100.00;101230.84;10429787;28;20037;-77
2024/03/17 21:21:05;;;;;;;16.50;11.05;;;;;;;13.38;100.00;101232.25;10438274;28;20069;-77
2024/03/17 21:26:28;;;;;;;16.40;11.13;;;;;;;13.23;100.00;101226.75;10448352;28;20075;-77
2024/03/17 21:31:50;;;;;;;18.05;11.65;;;;;;;13.08;100.00;101228.28;10447697;28;20059;-77
2024/03/17 21:37:14;;;;;;;14.88;11.32;;;;;;;12.85;100.00;101227.13;10436963;28;20057;-77
2024/03/17 21:42:38;;;;;;;13.68;10.30;;;;;;;12.66;100.00;101228.63;10441264;28;20136;-77
2024/03/17 21:48:01;;;;;;;15.93;10.82;;;;;;;12.43;100.00;101221.19;10433953;28;20044;-77
2024/03/17 21:53:25;;;;;;;18.40;12.05;;;;;;;12.22;100.00;101219.09;10448708;28;20136;-76
2024/03/17 21:58:47;;;;;;;16.20;10.68;;;;;;;12.15;100.00;101212.78;10446809;28;20049;-76
2024/03/17 22:04:10;;;;;;;16.55;11.35;;;;;;;12.06;100.00;101209.13;10447337;28;20057;-77
2024/03/17 22:09:36;;;;;;;13.93;10.52;;;;;;;12.01;100.00;101209.06;10433796;28;20049;-77
2024/03/17 22:14:58;;;;;;;16.63;9.57;;;;;;;11.89;100.00;101195.59;10447639;28;20041;-76
2024/03/17 22:20:23;;;;;;;15.18;10.13;;;;;;;11.79;100.00;101199.84;10446874;28;20264;-77
2024/03/17 22:25:53;;;;;;;13.00;9.82;;;;;;;11.77;100.00;101198.94;10419581;28;20061;-77
2024/03/17 22:31:15;;;;;;;11.10;8.93;;;;;;;11.83;100.00;101188.44;10432016;28;20045;-76
2024/03/17 22:36:38;;;;;;;12.77;8.88;;;;;;;11.80;100.00;101195.47;10454409;28;20053;-76
2024/03/17 22:42:02;;;;;;;14.80;9.60;;;;;;;11.83;100.00;101188.44;10453990;28;20057;-75
2024/03/17 22:47:24;;;;;;;12.75;9.73;;;;;;;11.86;100.00;101185.88;10439076;28;20448;-76
2024/03/17 22:52:47;;;;;;;16.95;11.57;;;;;;;11.90;100.00;101181.50;10452114;28;20090;-76
2024/03/17 22:58:11;;;;;;;17.75;11.60;;;;;;;12.08;100.00;101163.28;10447942;28;20103;-77
2024/03/17 23:03:34;;;;;;;14.30;9.10;;;;;;;12.18;100.00;101156.38;10452852;28;20554;-77
2024/03/17 23:08:56;;;;;;;16.40;10.50;;;;;;;12.42;100.00;101147.91;10452951;28;20110;-76
2024/03/17 23:14:20;;;;;;;17.25;11.05;;;;;;;12.69;100.00;101135.94;10447741;28;20045;-77
2024/03/17 23:19:44;;;;;;;18.65;10.98;;;;;;;12.95;100.00;101132.72;10435811;28;20439;-76
2024/03/17 23:25:08;;;;;;;12.70;8.93;;;;;;;12.94;100.00;101122.97;10424646;28;20068;-77
2024/03/17 23:30:33;;;;;;;19.38;14.35;;;;;;;13.01;100.00;101128.38;10451429;28;20051;-77
2024/03/17 23:35:55;;;;;;;15.15;10.73;;;;;;;13.38;100.00;101116.47;10451295;28;20436;-77
2024/03/17 23:41:18;;;;;;;14.35;9.32;;;;;;;13.46;100.00;101114.75;10464502;28;20048;-77
2024/03/17 23:46:42;;;;;;;12.50;8.73;;;;;;;13.30;100.00;101103.97;10448411;28;20037;-77
2024/03/17 23:52:06;;;;;;;16.63;8.25;;;;;;;13.36;100.00;101099.63;10450041;28;20540;-76
2024/03/17 23:57:29;;;;;;;12.07;7.72;;;;;;;13.08;100.00;101086.94;10450524;28;20664;-76
